Aviation Digital Data Service (ADDS)

Output produced by METARs form (0354 UTC 18 October 2017)
found at http://www.aviationweather.gov/adds/metars/
 
KVKS 180335Z AUTO 16003KT 10SM CLR 13/13 A3021 RMK A01
KVKS 180315Z AUTO 00000KT 10SM CLR 13/13 A3021 RMK A01
KVKS 180255Z AUTO 00000KT 10SM CLR 13/13 A3022 RMK A01
KVKS 180235Z AUTO 00000KT 10SM CLR 13/13 A3021 RMK A01
KVKS 180215Z AUTO 00000KT 10SM CLR 14/13 A3021 RMK A01
KVKS 180155Z AUTO 00000KT 10SM CLR 14/14 A3020 RMK A01
KVKS 180135Z AUTO 00000KT 10SM FEW035 15/14 A3020 RMK A01
KVKS 180115Z AUTO 00000KT 10SM FEW034 15/14 A3019 RMK A01
KVKS 180055Z AUTO 00000KT 10SM CLR 15/14 A3019 RMK A01
KVKS 180035Z AUTO 00000KT 10SM CLR 16/14 A3019 RMK A01
KVKS 180015Z AUTO 00000KT 10SM CLR 16/14 A3019 RMK A01
KVKS 172355Z AUTO 00000KT 10SM CLR 17/14 A3018 RMK A01
KVKS 172335Z AUTO 00000KT 10SM CLR 18/14 A3018 RMK A01
KVKS 172315Z AUTO 00000KT 10SM CLR 21/13 A3017 RMK A01
KVKS 172255Z AUTO 06004KT 10SM CLR 23/11 A3017 RMK A01
KVKS 172235Z AUTO 05005KT 10SM CLR 24/11 A3018 RMK A01
KVKS 172215Z AUTO 04006KT 10SM CLR 24/11 A3017 RMK A01
KVKS 172155Z AUTO 06005KT 10SM CLR 24/10 A3018 RMK A01
KVKS 172135Z AUTO 00000KT 10SM CLR 24/10 A3018 RMK A01
KVKS 172115Z AUTO 04004KT 10SM CLR 25/11 A3019 RMK A01
KVKS 172055Z AUTO VRB03KT 10SM CLR 25/11 A3019 RMK A01
KVKS 172035Z AUTO 06006KT 10SM CLR 25/10 A3020 RMK A01
KVKS 172015Z AUTO VRB05G11KT 10SM CLR 25/10 A3020 RMK A01
KVKS 171955Z AUTO VRB04KT 10SM CLR 24/11 A3020 RMK A01
KVKS 171935Z AUTO VRB05G13KT 10SM CLR 24/11 A3021 RMK A01
KVKS 171915Z AUTO 00000KT 10SM CLR 24/11 A3022 RMK A01
KVKS 171855Z AUTO 08007KT 10SM CLR 24/11 A3022 RMK A01
KVKS 171835Z AUTO 04006KT 10SM CLR 23/12 A3023 RMK A01
KVKS 171815Z AUTO 00000KT 10SM CLR 22/12 A3024 RMK A01
KVKS 171755Z AUTO 00000KT 10SM CLR 22/12 A3025 RMK A01
KVKS 171735Z AUTO VRB03KT 10SM CLR 21/12 A3026 RMK A01
KVKS 171715Z AUTO 03004KT 10SM CLR 21/11 A3027 RMK A01
KVKS 171655Z AUTO 00000KT 10SM CLR 20/11 A3028 RMK A01
KVKS 171635Z AUTO 00000KT 10SM CLR 20/11 A3028 RMK A01
KVKS 171615Z AUTO VRB04KT 10SM CLR 19/10 A3029 RMK A01
KVKS 171555Z AUTO VRB05KT 10SM CLR 18/10 A3029 RMK A01
KVKS 171535Z AUTO 11005KT 10SM CLR 18/09 A3029 RMK A01
KVKS 171515Z AUTO 08006KT 10SM CLR 17/09 A3029 RMK A01
KVKS 171455Z AUTO 07007KT 10SM CLR 16/08 A3030 RMK A01
KVKS 171435Z AUTO VRB04G10KT 10SM CLR 15/09 A3030 RMK A01
KVKS 171415Z AUTO VRB04KT 10SM CLR 13/09 A3030 RMK A01
KVKS 171355Z AUTO 00000KT 10SM CLR 11/10 A3031 RMK A01
KVKS 171335Z AUTO 35003KT 10SM CLR 10/10 A3030 RMK A01
KVKS 171315Z AUTO 33004KT 10SM CLR 09/09 A3029 RMK A01
KVKS 171255Z AUTO 00000KT 9SM CLR 07/07 A3029 RMK A01
KVKS 171235Z AUTO 00000KT 8SM CLR 07/07 A3029 RMK A01
KVKS 171215Z AUTO 00000KT 3SM BR CLR 06/06 A3029 RMK A01
KVKS 171155Z AUTO 00000KT 1/2SM BR VV005 06/06 A3028 RMK A01
KVKS 171135Z AUTO 00000KT 9SM CLR 07/07 A3028 RMK A01
KVKS 171115Z AUTO 00000KT 1/2SM BR VV005 07/07 A3027 RMK A01
KVKS 171055Z AUTO 00000KT 10SM CLR 06/06 A3027 RMK A01
KVKS 171035Z AUTO 00000KT 3SM BR CLR 07/07 A3026 RMK A01
KVKS 171015Z AUTO 00000KT 2 1/2SM BR CLR 07/07 A3026 RMK A01 VIS 1 1/2V5
KVKS 170955Z AUTO 00000KT 10SM CLR 07/07 A3025 RMK A01
KVKS 170935Z AUTO 00000KT 1 3/4SM BR CLR 07/07 A3025 RMK A01 VIS 1/2V5
KVKS 170915Z AUTO 00000KT 1 1/2SM BR CLR 07/07 A3024 RMK A01 VIS 1/2V5
KVKS 170855Z AUTO 00000KT 8SM CLR 07/07 A3024 RMK A01
KVKS 170835Z AUTO 00000KT 10SM CLR 07/07 A3024 RMK A01
KVKS 170815Z AUTO 00000KT 6SM BR CLR 08/07 A3025 RMK A01
KVKS 170755Z AUTO 00000KT 9SM CLR 08/08 A3025 RMK A01
KVKS 170735Z AUTO 00000KT 10SM CLR 08/08 A3025 RMK A01
KVKS 170715Z AUTO 00000KT 10SM CLR 08/08 A3026 RMK A01
KVKS 170655Z AUTO 00000KT 10SM CLR 09/08 A3026 RMK A01
KVKS 170635Z AUTO 00000KT 10SM CLR 09/08 A3026 RMK A01
KVKS 170615Z AUTO 00000KT 10SM CLR 09/08 A3026 RMK A01
KVKS 170555Z AUTO 00000KT 10SM CLR 09/08 A3026 RMK A01
KVKS 170535Z AUTO 00000KT 10SM CLR 09/08 A3026 RMK A01
KVKS 170515Z AUTO 00000KT 10SM CLR 10/08 A3026 RMK A01
KVKS 170455Z AUTO 00000KT 10SM CLR 10/08 A3026 RMK A01
KVKS 170435Z AUTO 00000KT 10SM CLR 10/08 A3027 RMK A01
KVKS 170415Z AUTO 00000KT 10SM CLR 11/08 A3027 RMK A01
KVKS 170355Z AUTO 00000KT 10SM CLR 11/08 A3027 RMK A01
KVKS 170335Z AUTO 01003KT 10SM CLR 12/08 A3027 RMK A01
KVKS 170315Z AUTO 00000KT 10SM CLR 11/08 A3027 RMK A01
KVKS 170255Z AUTO 00000KT 10SM CLR 12/08 A3027 RMK A01
KVKS 170235Z AUTO 00000KT 10SM CLR 11/08 A3027 RMK A01
KVKS 170215Z AUTO 00000KT 10SM CLR 12/09 A3026 RMK A01
KVKS 170155Z AUTO 00000KT 10SM CLR 12/09 A3026 RMK A01
KVKS 170135Z AUTO 36003KT 10SM CLR 14/08 A3026 RMK A01
KVKS 170115Z AUTO 03003KT 10SM CLR 15/06 A3025 RMK A01
KVKS 170055Z AUTO 03004KT 10SM CLR 16/06 A3025 RMK A01
KVKS 170035Z AUTO 02006KT 10SM CLR 16/06 A3024 RMK A01
KVKS 170015Z AUTO 03003KT 10SM CLR 16/06 A3023 RMK A01
KVKS 162355Z AUTO 01005KT 10SM CLR 17/06 A3023 RMK A01
KVKS 162335Z AUTO 36012KT 10SM CLR 18/05 A3022 RMK A01
KVKS 162315Z AUTO 01011G16KT 10SM CLR 19/04 A3022 RMK A01
KVKS 162255Z AUTO 01014G20KT 10SM CLR 20/04 A3021 RMK A01
KVKS 162235Z AUTO 03012G20KT 10SM CLR 21/04 A3020 RMK A01
KVKS 162215Z AUTO 01013G20KT 10SM CLR 21/04 A3020 RMK A01
KVKS 162155Z AUTO 36010G19KT 10SM CLR 21/05 A3020 RMK A01
KVKS 162135Z AUTO 01012G18KT 10SM CLR 21/05 A3020 RMK A01
KVKS 162115Z AUTO 36012G19KT 10SM CLR 22/06 A3019 RMK A01
KVKS 162055Z AUTO 36014KT 10SM CLR 22/06 A3020 RMK A01
KVKS 162035Z AUTO 36010G18KT 10SM CLR 22/05 A3020 RMK A01
KVKS 162015Z AUTO 01012G20KT 8SM CLR 22/06 A3021 RMK A01
KVKS 161955Z AUTO 36016KT 10SM CLR 22/06 A3021 RMK A01
KVKS 161935Z AUTO 36015KT 10SM CLR 22/06 A3022 RMK A01
KVKS 161915Z AUTO 02012G18KT 10SM CLR 22/06 A3023 RMK A01
KVKS 161855Z AUTO 01012G20KT 10SM CLR 21/07 A3024 RMK A01
KVKS 161835Z AUTO 01012G19KT 10SM CLR 21/07 A3025 RMK A01
KVKS 161815Z AUTO 01019G24KT 10SM CLR 20/06 A3025 RMK A01
KVKS 161755Z AUTO 01015KT 10SM CLR 20/07 A3027 RMK A01
KVKS 161735Z AUTO 03011G18KT 10SM CLR 20/07 A3028 RMK A01
KVKS 161715Z AUTO 36014KT 10SM CLR 19/07 A3029 RMK A01
KVKS 161655Z AUTO 35011KT 10SM CLR 19/08 A3031 RMK A01
KVKS 161635Z AUTO 01014KT 10SM CLR 19/07 A3031 RMK A01
KVKS 161615Z AUTO 04011G16KT 10SM CLR 18/06 A3031 RMK A01
KVKS 161555Z AUTO 04013G18KT 10SM CLR 18/07 A3031 RMK A01
KVKS 161535Z AUTO 03009G17KT 360V060 10SM CLR 17/07 A3032 RMK A01
KVKS 161515Z AUTO 36009G16KT 10SM CLR 17/08 A3032 RMK A01
KVKS 161455Z AUTO 01012KT 10SM CLR 16/08 A3031 RMK A01
KVKS 161055Z AUTO 03008G18KT 10SM CLR 13/09 A3025 RMK A01